Time;durP1;ratioP1;P1;durP2;ratioP2;P2;SDS_P1;SDS_P2;PMS_P1;PMS_P2;Temp;Humidity;BMP_temperature;BMP_pressure;BME280_temperature;BME280_humidity;BME280_pressure;Samples;Min_cycle;Max_cycle;Signal;HPM_P1;HPM_P2
2021/12/06 00:01:48;;;;;;;23.30;14.50;;;3.40;99.90;;;4.00;100.00;99594.16;5092192;28;20203;-62
2021/12/06 00:04:20;;;;;;;24.83;15.20;;;3.30;99.90;;;4.10;100.00;99580.47;5072102;28;20534;-63
2021/12/06 00:06:54;;;;;;;28.40;17.20;;;3.20;99.90;;;4.31;100.00;99577.78;5072288;28;20231;-63
2021/12/06 00:09:26;;;;;;;23.83;15.60;;;3.30;99.90;;;3.97;100.00;99581.22;5072285;28;20189;-63
2021/12/06 00:11:59;;;;;;;28.07;16.37;;;3.20;99.90;;;4.21;100.00;99575.44;5071883;28;20200;-62
2021/12/06 00:14:29;;;;;;;25.67;16.40;;;3.20;99.90;;;4.01;100.00;99585.13;5072257;28;20297;-63
2021/12/06 00:17:03;;;;;;;27.37;16.30;;;3.20;99.90;;;3.87;100.00;99580.72;5072205;28;20205;-62
2021/12/06 00:19:32;;;;;;;30.53;18.03;;;3.10;99.90;;;3.99;100.00;99589.81;5072347;28;20288;-63
2021/12/06 00:22:03;;;;;;;29.13;17.57;;;3.10;99.90;;;4.03;100.00;99587.59;5071796;28;20591;-62
2021/12/06 00:24:32;;;;;;;34.57;17.57;;;3.20;99.90;;;3.96;100.00;99594.72;5071866;28;20602;-63
2021/12/06 00:27:00;;;;;;;32.30;19.77;;;3.10;99.90;;;4.16;100.00;99601.84;5072232;28;20292;-63
2021/12/06 00:29:28;;;;;;;31.53;17.73;;;3.10;99.90;;;4.22;100.00;99613.59;5071017;28;20756;-63
2021/12/06 00:31:56;;;;;;;25.13;16.23;;;3.20;99.90;;;4.15;100.00;99612.72;5072133;28;20298;-63
2021/12/06 00:34:32;;;;;;;31.10;17.30;;;3.20;99.90;;;3.98;100.00;99606.81;5072187;28;20207;-63
2021/12/06 00:37:16;;;;;;;30.33;18.00;;;3.10;99.90;;;3.95;100.00;99615.22;5071947;28;20217;-62
2021/12/06 00:39:45;;;;;;;29.17;16.43;;;3.10;99.90;;;4.07;100.00;99612.84;5071628;28;20602;-63
2021/12/06 00:42:13;;;;;;;29.30;16.83;;;3.10;99.90;;;4.04;100.00;99610.56;5072190;28;20706;-63
2021/12/06 00:44:42;;;;;;;28.10;16.53;;;3.10;99.90;;;3.84;100.00;99612.22;5073493;28;20229;-64
2021/12/06 00:47:10;;;;;;;26.60;16.50;;;3.00;99.90;;;3.96;100.00;99610.72;5075321;28;20241;-63
2021/12/06 00:49:39;;;;;;;30.50;16.33;;;3.10;99.90;;;3.85;100.00;99613.88;5075574;28;20509;-63
2021/12/06 00:52:08;;;;;;;29.07;16.47;;;3.00;99.90;;;4.00;100.00;99628.78;5075494;28;20296;-63
2021/12/06 00:54:36;;;;;;;30.63;17.30;;;3.00;99.90;;;3.90;100.00;99633.59;5074889;28;20287;-63
2021/12/06 00:57:08;;;;;;;30.37;18.20;;;3.00;99.90;;;3.94;100.00;99628.72;5074292;28;20242;-64
2021/12/06 00:59:38;;;;;;;28.20;17.80;;;3.00;99.90;;;3.71;100.00;99629.72;5075099;28;20523;-62
2021/12/06 01:02:12;;;;;;;30.40;17.30;;;2.90;99.90;;;3.71;100.00;99632.38;5077102;28;20730;-62
2021/12/06 01:04:46;;;;;;;27.30;16.43;;;2.80;99.90;;;3.67;100.00;99644.41;5095556;28;20180;-62
2021/12/06 01:07:16;;;;;;;30.80;16.07;;;2.80;99.90;;;3.74;100.00;99632.00;5095380;28;20233;-64
2021/12/06 01:09:45;;;;;;;30.07;16.43;;;2.80;99.90;;;3.74;100.00;99637.34;5075349;28;20535;-63
2021/12/06 01:12:14;;;;;;;28.13;15.83;;;2.80;99.90;;;3.88;100.00;99634.78;5074588;28;20233;-63
2021/12/06 01:14:42;;;;;;;25.27;15.10;;;2.90;99.90;;;3.78;100.00;99645.78;5075182;28;20314;-63
2021/12/06 01:17:10;;;;;;;25.93;15.67;;;2.90;99.90;;;3.88;100.00;99643.63;5075137;28;20226;-63
2021/12/06 01:19:38;;;;;;;26.87;16.50;;;2.90;99.90;;;3.79;100.00;99651.94;5075245;28;20204;-64
2021/12/06 01:22:27;;;;;;;30.07;16.03;;;2.80;99.90;;;3.69;100.00;99652.22;5074910;28;20301;-64
2021/12/06 01:25:00;;;;;;;26.20;15.20;;;2.80;99.90;;;3.49;100.00;99656.50;5074824;28;20303;-63
2021/12/06 01:27:45;;;;;;;26.50;16.43;;;2.70;99.90;;;3.59;100.00;99657.84;5074524;28;20640;-63
2021/12/06 01:30:32;;;;;;;26.00;15.30;;;2.70;99.90;;;3.65;100.00;99661.63;5074955;28;20276;-63
2021/12/06 01:41:34;;;;;;;26.10;14.93;;;2.80;99.90;;;3.62;100.00;99677.94;5094377;28;20719;-62
2021/12/06 01:44:10;;;;;;;26.47;16.00;;;2.80;99.90;;;3.75;100.00;99681.59;5094310;28;20217;-62
2021/12/06 01:46:44;;;;;;;26.67;15.87;;;2.80;99.90;;;3.78;100.00;99684.88;5094796;28;20189;-63
2021/12/06 01:49:13;;;;;;;29.23;15.90;;;2.80;99.90;;;3.88;100.00;99685.41;5094657;28;20180;-63
2021/12/06 01:51:43;;;;;;;26.13;14.93;;;2.90;99.90;;;3.77;100.00;99680.59;5094829;28;20196;-63
2021/12/06 01:54:13;;;;;;;28.97;15.50;;;2.80;99.90;;;3.80;100.00;99686.38;5094359;28;20654;-63
2021/12/06 01:56:42;;;;;;;25.80;14.90;;;2.90;99.90;;;3.63;100.00;99683.09;5094128;28;20201;-63
2021/12/06 01:59:12;;;;;;;28.23;15.40;;;2.80;99.90;;;3.57;100.00;99685.66;5094475;28;20204;-63
2021/12/06 02:01:41;;;;;;;26.23;15.47;;;2.70;99.90;;;3.82;100.00;99688.84;5094567;28;20283;-63
2021/12/06 02:04:10;;;;;;;25.40;14.73;;;2.80;99.90;;;3.83;100.00;99680.66;5088980;28;20299;-64
2021/12/06 02:06:40;;;;;;;23.40;13.70;;;2.80;99.90;;;3.86;100.00;99677.59;5074252;28;20225;-62
2021/12/06 02:09:16;;;;;;;23.77;14.80;;;2.80;99.90;;;3.64;100.00;99683.91;5073891;28;20254;-62
2021/12/06 02:11:46;;;;;;;23.73;14.73;;;2.80;99.90;;;3.42;100.00;99690.19;5074220;28;20192;-64
2021/12/06 02:14:27;;;;;;;28.40;15.43;;;2.70;99.90;;;3.73;100.00;99688.13;5074025;28;20308;-64
2021/12/06 02:17:09;;;;;;;26.73;15.27;;;2.70;99.90;;;3.69;100.00;99700.16;5074122;28;20185;-63
2021/12/06 02:19:44;;;;;;;23.90;14.40;;;2.70;99.90;;;3.40;100.00;99695.69;5073595;28;20220;-63
2021/12/06 02:22:18;;;;;;;23.00;13.90;;;2.70;99.90;;;3.49;100.00;99693.75;5074007;28;20541;-63
2021/12/06 02:24:46;;;;;;;29.53;15.63;;;2.70;99.90;;;3.55;100.00;99687.72;5073399;28;20232;-63
2021/12/06 02:27:16;;;;;;;27.10;14.80;;;2.70;99.90;;;3.66;100.00;99684.56;5073788;28;20209;-62
2021/12/06 02:29:48;;;;;;;24.13;14.27;;;2.70;99.90;;;3.76;100.00;99693.06;5073930;28;20210;-63
2021/12/06 02:32:18;;;;;;;26.53;14.67;;;2.80;99.90;;;3.74;100.00;99697.75;5073773;28;20277;-64
2021/12/06 02:34:49;;;;;;;22.73;15.23;;;2.80;99.90;;;3.74;100.00;99687.94;5073183;28;20323;-64
2021/12/06 02:37:22;;;;;;;25.70;15.20;;;2.80;99.90;;;3.56;100.00;99689.34;5073546;28;20279;-65
2021/12/06 02:39:51;;;;;;;26.13;15.23;;;2.70;99.90;;;3.65;100.00;99683.72;5073313;28;20227;-63
2021/12/06 02:42:21;;;;;;;29.17;16.73;;;2.70;99.90;;;3.67;100.00;99688.84;5073104;28;20324;-63
2021/12/06 02:44:50;;;;;;;27.47;15.63;;;2.70;99.90;;;3.75;100.00;99681.59;5073233;28;20207;-63
2021/12/06 02:47:20;;;;;;;30.43;16.93;;;2.80;99.90;;;3.72;100.00;99687.28;5073384;28;20304;-62
2021/12/06 02:49:49;;;;;;;25.63;16.10;;;2.70;99.90;;;3.57;100.00;99685.66;5073533;28;20236;-62
2021/12/06 02:52:19;;;;;;;30.50;16.73;;;2.70;99.90;;;3.59;100.00;99696.97;5073314;28;20197;-63
2021/12/06 02:54:54;;;;;;;26.50;16.03;;;2.70;99.90;;;3.68;100.00;99696.69;5072751;28;20275;-64
2021/12/06 02:57:33;;;;;;;33.10;17.60;;;2.70;99.90;;;3.84;100.00;99698.28;5073119;28;20187;-63
2021/12/06 03:00:01;;;;;;;30.87;16.90;;;2.80;99.90;;;3.76;100.00;99701.06;5072594;28;20655;-63
2021/12/06 03:02:30;;;;;;;30.20;17.33;;;2.80;99.90;;;3.71;100.00;99704.28;5073053;28;20202;-63
2021/12/06 03:04:59;;;;;;;30.67;17.10;;;2.80;99.90;;;3.63;100.00;99703.56;5072660;28;20209;-63
2021/12/06 03:07:29;;;;;;;34.13;16.87;;;2.80;99.90;;;3.58;100.00;99713.97;5072242;28;20288;-63
2021/12/06 03:09:57;;;;;;;33.07;17.87;;;2.80;99.90;;;3.72;100.00;99719.25;5072403;28;20288;-63
2021/12/06 03:12:28;;;;;;;30.50;16.73;;;2.70;99.90;;;3.51;100.00;99721.03;5072922;28;20236;-63
2021/12/06 03:15:00;;;;;;;31.63;16.63;;;2.70;99.90;;;3.70;100.00;99723.94;5072537;28;20301;-62
2021/12/06 03:17:32;;;;;;;31.07;17.23;;;2.80;99.90;;;3.44;100.00;99730.75;5072603;28;20663;-65
2021/12/06 03:20:03;;;;;;;36.67;18.57;;;2.70;99.90;;;3.74;100.00;99730.53;5072841;28;20237;-63
2021/12/06 03:22:32;;;;;;;39.53;19.40;;;2.80;99.90;;;3.57;100.00;99729.09;5073022;28;20182;-65
2021/12/06 03:25:00;;;;;;;39.83;19.73;;;2.70;99.90;;;3.37;100.00;99727.19;5072615;28;20294;-62
2021/12/06 03:27:28;;;;;;;36.50;18.37;;;2.70;99.90;;;3.36;100.00;99731.69;5072693;28;20297;-64
2021/12/06 03:29:56;;;;;;;42.80;20.40;;;2.60;99.90;;;3.49;100.00;99731.88;5072477;28;20584;-63
2021/12/06 03:32:24;;;;;;;45.23;21.07;;;2.60;99.90;;;3.64;100.00;99740.66;5072551;28;20587;-63
2021/12/06 03:34:52;;;;;;;42.73;20.97;;;2.70;99.90;;;3.50;100.00;99743.34;5072537;28;20307;-63
2021/12/06 03:37:20;;;;;;;49.43;22.23;;;2.70;99.90;;;3.40;100.00;99732.16;5072695;28;20207;-65
2021/12/06 03:39:50;;;;;;;42.47;20.87;;;2.60;99.90;;;3.48;100.00;99740.03;5092702;28;20303;-64
2021/12/06 03:42:23;;;;;;;48.03;20.37;;;2.60;99.90;;;3.17;100.00;99732.25;5092588;28;20262;-63
2021/12/06 03:44:52;;;;;;;42.87;19.33;;;2.50;99.90;;;3.16;100.00;99740.41;5092547;28;20185;-64
2021/12/06 03:47:25;;;;;;;43.53;21.10;;;2.40;99.90;;;3.34;100.00;99747.03;5092944;28;20242;-64
2021/12/06 03:49:54;;;;;;;40.83;20.03;;;2.40;99.90;;;3.32;100.00;99750.88;5092611;28;20181;-64
2021/12/06 03:52:23;;;;;;;43.90;20.43;;;2.40;99.90;;;3.41;100.00;99753.28;5092713;28;20207;-62
2021/12/06 03:54:53;;;;;;;42.53;19.53;;;2.40;99.90;;;3.42;100.00;99751.41;5092093;28;20222;-64
2021/12/06 03:57:22;;;;;;;41.33;19.53;;;2.40;99.90;;;3.48;100.00;99753.34;5081923;28;20235;-64
2021/12/06 03:59:52;;;;;;;38.70;18.93;;;2.40;99.90;;;3.21;100.00;99756.66;5071907;28;20291;-63
2021/12/06 04:02:31;;;;;;;31.33;16.63;;;2.30;99.90;;;3.28;100.00;99763.72;5072247;28;20864;-64
2021/12/06 04:04:59;;;;;;;32.67;17.13;;;2.30;99.90;;;3.01;100.00;99771.50;5072266;28;20669;-64
2021/12/06 04:07:27;;;;;;;30.33;15.73;;;2.20;99.90;;;3.07;100.00;99773.41;5072419;28;20260;-63
2021/12/06 04:09:57;;;;;;;30.67;16.20;;;2.10;99.90;;;2.87;100.00;99775.78;5072043;28;20239;-63
2021/12/06 04:12:25;;;;;;;28.60;16.70;;;2.10;99.90;;;3.09;100.00;99779.41;5072070;28;20243;-63
2021/12/06 04:14:53;;;;;;;26.90;16.30;;;2.10;99.90;;;3.12;100.00;99782.50;5071886;28;20307;-64
2021/12/06 04:17:21;;;;;;;25.03;16.07;;;2.10;99.90;;;3.01;100.00;99784.78;5072402;28;20203;-63
2021/12/06 04:19:49;;;;;;;26.60;16.37;;;2.10;99.90;;;2.85;100.00;99785.75;5076029;28;20299;-63
2021/12/06 04:22:18;;;;;;;26.40;15.70;;;2.00;99.90;;;2.67;100.00;99787.09;5076786;28;20382;-64
2021/12/06 04:24:47;;;;;;;28.90;18.00;;;2.00;99.90;;;2.63;100.00;99796.41;5076247;28;20849;-63
2021/12/06 04:27:18;;;;;;;30.03;18.33;;;1.90;99.90;;;2.67;100.00;99803.88;5076601;28;20295;-63
2021/12/06 04:29:51;;;;;;;29.30;18.43;;;1.80;99.90;;;3.02;100.00;99797.91;5076363;28;20276;-63
2021/12/06 04:32:20;;;;;;;28.37;17.53;;;1.90;99.90;;;2.64;100.00;99801.53;5076939;28;20248;-63
2021/12/06 04:34:49;;;;;;;31.97;18.33;;;1.90;99.90;;;2.64;100.00;99806.84;5076732;28;20220;-63
2021/12/06 04:37:17;;;;;;;28.27;17.77;;;1.80;99.90;;;2.40;100.00;99817.69;5076509;28;20232;-64
2021/12/06 04:39:45;;;;;;;31.57;18.67;;;1.70;99.90;;;2.68;100.00;99816.16;5076008;28;20223;-64
2021/12/06 04:42:13;;;;;;;31.90;19.03;;;1.80;99.90;;;2.77;100.00;99816.91;5075377;28;20718;-63
2021/12/06 04:44:43;;;;;;;27.37;17.93;;;1.80;99.90;;;2.68;100.00;99818.81;5075922;28;20741;-63
2021/12/06 04:47:12;;;;;;;27.50;17.60;;;1.70;99.90;;;2.82;100.00;99823.34;5075641;28;20299;-63
2021/12/06 04:49:40;;;;;;;26.17;17.77;;;1.80;99.90;;;2.63;100.00;99823.00;5076253;28;20204;-64
2021/12/06 04:52:14;;;;;;;27.40;18.37;;;1.80;99.90;;;2.77;100.00;99830.22;5075895;28;20292;-62
2021/12/06 04:54:47;;;;;;;24.43;17.10;;;1.80;99.90;;;2.67;100.00;99833.13;5075544;28;20255;-63
2021/12/06 04:57:23;;;;;;;25.17;17.47;;;1.80;99.90;;;2.71;100.00;99822.94;5075859;28;20227;-66
2021/12/06 05:00:00;;;;;;;29.07;18.33;;;1.80;99.90;;;2.65;100.00;99828.97;5075140;28;20207;-66
2021/12/06 05:02:37;;;;;;;30.43;18.83;;;1.70;99.90;;;2.70;100.00;99823.94;5075282;28;20611;-64
2021/12/06 05:05:13;;;;;;;28.53;18.43;;;1.80;99.90;;;2.69;100.00;99833.75;5075030;28;20781;-63
2021/12/06 05:07:46;;;;;;;27.30;17.67;;;1.80;99.90;;;2.81;100.00;99836.84;5075321;28;20271;-63
2021/12/06 05:10:16;;;;;;;27.67;18.40;;;1.80;99.90;;;2.83;100.00;99848.94;5075123;28;20184;-63
2021/12/06 05:12:45;;;;;;;29.97;18.80;;;1.80;99.90;;;2.78;100.00;99835.34;5074610;28;20722;-63
2021/12/06 05:15:15;;;;;;;31.17;18.97;;;1.80;99.90;;;2.49;100.00;99849.34;5074937;28;20497;-62
2021/12/06 05:17:44;;;;;;;31.60;18.77;;;1.80;99.90;;;2.65;100.00;99851.06;5074798;28;20291;-64
2021/12/06 05:20:14;;;;;;;30.40;19.60;;;1.80;99.90;;;2.66;100.00;99849.22;5074910;28;20243;-65
2021/12/06 05:22:43;;;;;;;31.40;19.53;;;1.80;99.90;;;2.66;100.00;99852.72;5074665;28;20606;-64
2021/12/06 05:25:13;;;;;;;30.63;19.70;;;1.80;99.90;;;2.69;100.00;99849.69;5074731;28;20203;-64
2021/12/06 05:27:42;;;;;;;27.83;18.77;;;1.80;99.90;;;2.56;100.00;99851.28;5074785;28;20196;-65
2021/12/06 05:30:14;;;;;;;30.17;20.13;;;1.70;99.90;;;2.71;100.00;99855.66;5074339;28;20296;-64
2021/12/06 05:32:44;;;;;;;29.13;18.77;;;1.80;99.90;;;2.74;100.00;99857.97;5074823;28;20696;-63
2021/12/06 05:35:14;;;;;;;27.73;18.47;;;1.80;99.90;;;2.68;100.00;99873.81;5075058;28;20234;-64
2021/12/06 05:37:47;;;;;;;27.50;17.97;;;1.80;99.90;;;2.56;100.00;99869.88;5077887;28;20686;-63
2021/12/06 05:40:21;;;;;;;28.90;18.90;;;1.70;99.90;;;2.52;100.00;99874.72;5094806;28;20286;-66
2021/12/06 05:42:50;;;;;;;30.47;19.80;;;1.80;99.90;;;2.71;100.00;99874.28;5094315;28;20592;-65
2021/12/06 05:45:23;;;;;;;28.43;19.13;;;1.70;99.90;;;2.71;100.00;99874.28;5094638;28;20659;-64
2021/12/06 05:47:53;;;;;;;30.20;18.73;;;1.80;99.90;;;2.49;100.00;99875.09;5094586;28;20207;-65
2021/12/06 05:50:23;;;;;;;31.90;19.80;;;1.70;99.90;;;2.66;100.00;99875.81;5094455;28;20210;-63
2021/12/06 05:52:54;;;;;;;29.60;19.00;;;1.70;99.90;;;2.47;100.00;99880.56;5094490;28;20188;-65
2021/12/06 05:55:27;;;;;;;26.63;18.23;;;1.70;99.90;;;2.47;100.00;99888.56;5094782;28;20200;-64
2021/12/06 05:57:56;;;;;;;30.83;19.47;;;1.60;99.90;;;2.47;100.00;99888.56;5094148;28;20215;-64
2021/12/06 06:00:28;;;;;;;33.60;19.93;;;1.70;99.90;;;2.59;100.00;99886.31;5094552;28;20294;-64
2021/12/06 06:02:56;;;;;;;28.63;19.20;;;1.70;99.90;;;2.38;100.00;99897.56;5094385;28;20193;-65
2021/12/06 06:05:25;;;;;;;31.13;20.17;;;1.60;99.90;;;2.64;100.00;99899.09;5094349;28;20250;-65
2021/12/06 06:07:53;;;;;;;33.30;20.17;;;1.70;99.90;;;2.57;100.00;99900.81;5094117;28;20656;-65
2021/12/06 06:10:21;;;;;;;30.27;19.00;;;1.70;99.90;;;2.61;100.00;99910.91;5094047;28;20651;-63
2021/12/06 06:12:49;;;;;;;32.83;20.57;;;1.70;99.90;;;2.47;100.00;99911.63;5093733;28;20643;-64
2021/12/06 06:15:17;;;;;;;32.50;19.77;;;1.70;99.90;;;2.56;100.00;99912.41;5094380;28;20294;-64
2021/12/06 06:17:47;;;;;;;31.80;19.70;;;1.70;99.90;;;2.50;100.00;99913.97;5093934;28;20207;-64
2021/12/06 06:20:21;;;;;;;30.17;20.23;;;1.70;99.90;;;2.28;100.00;99917.41;5093887;28;20744;-63
2021/12/06 06:22:49;;;;;;;31.17;19.23;;;1.60;99.90;;;2.66;100.00;99924.50;5093844;28;20200;-64
2021/12/06 06:25:17;;;;;;;29.83;19.37;;;1.60;99.90;;;2.43;100.00;99918.31;5094186;28;20298;-64
2021/12/06 06:27:46;;;;;;;31.60;20.67;;;1.60;99.90;;;2.45;100.00;99918.97;5093782;28;20295;-64
2021/12/06 06:30:16;;;;;;;32.50;20.17;;;1.60;99.90;;;2.78;100.00;99928.41;5093481;28;20753;-64
2021/12/06 06:32:46;;;;;;;29.13;18.67;;;1.70;99.90;;;2.34;100.00;99930.81;5083266;28;20300;-65
2021/12/06 06:35:18;;;;;;;31.57;19.80;;;1.70;99.90;;;2.59;100.00;99938.69;5073541;28;20195;-65
2021/12/06 06:37:46;;;;;;;32.97;20.67;;;1.70;99.90;;;2.64;100.00;99941.66;5077216;28;20184;-66
2021/12/06 06:40:16;;;;;;;31.20;19.97;;;1.80;99.90;;;2.65;100.00;99943.28;5093577;28;20235;-66
2021/12/06 06:42:45;;;;;;;31.23;20.70;;;1.80;99.90;;;2.73;100.00;99943.22;5092557;28;20538;-61
2021/12/06 06:45:17;;;;;;;31.23;19.50;;;1.80;99.90;;;2.56;100.00;99942.50;5089797;28;20210;-62
2021/12/06 06:47:48;;;;;;;34.57;19.67;;;1.80;99.90;;;2.48;100.00;99951.34;5073359;28;20205;-62
2021/12/06 06:50:17;;;;;;;31.60;19.50;;;1.70;99.90;;;2.70;100.00;99955.06;5073029;28;20278;-61
2021/12/06 06:52:45;;;;;;;31.47;19.13;;;1.70;99.90;;;2.89;100.00;99961.78;5073194;28;20295;-65
2021/12/06 06:55:15;;;;;;;33.83;20.37;;;1.80;99.90;;;2.92;100.00;99964.91;5072551;28;20247;-65
2021/12/06 06:57:45;;;;;;;31.17;20.23;;;1.90;99.90;;;2.75;100.00;99966.00;5073043;28;20252;-65
2021/12/06 07:00:18;;;;;;;28.70;18.90;;;1.80;99.90;;;2.43;100.00;99966.16;5073051;28;20215;-65
2021/12/06 07:02:48;;;;;;;31.57;20.03;;;1.70;99.90;;;2.88;100.00;99976.91;5080804;28;20274;-67
2021/12/06 07:05:17;;;;;;;32.00;19.80;;;1.80;99.90;;;2.58;100.00;99975.06;5093424;28;20550;-66
2021/12/06 07:07:45;;;;;;;32.27;20.13;;;1.80;99.90;;;2.61;100.00;99977.38;5093284;28;20203;-65
2021/12/06 07:10:14;;;;;;;37.00;20.77;;;1.80;99.90;;;2.83;100.00;99981.91;5093025;28;20290;-66
2021/12/06 07:12:45;;;;;;;33.53;21.30;;;1.80;99.90;;;2.63;100.00;99978.03;5093021;28;20303;-66
2021/12/06 07:15:19;;;;;;;32.07;20.80;;;1.80;99.90;;;2.69;100.00;99982.63;5092899;28;20267;-65
2021/12/06 07:17:51;;;;;;;31.00;20.33;;;1.80;99.90;;;3.00;100.00;99987.97;5092913;28;20216;-67
2021/12/06 07:20:21;;;;;;;28.40;18.43;;;1.90;99.90;;;2.67;100.00;99986.50;5092729;28;20384;-66
2021/12/06 07:22:51;;;;;;;30.90;19.83;;;1.90;99.90;;;2.74;100.00;99988.25;5092910;28;20223;-66
2021/12/06 07:25:25;;;;;;;30.93;19.90;;;1.80;99.90;;;2.57;100.00;100007.13;5092485;28;20217;-67
2021/12/06 07:27:53;;;;;;;33.50;20.73;;;1.80;99.90;;;2.74;100.00;100000.75;5089324;28;20630;-64
2021/12/06 07:30:22;;;;;;;30.70;20.10;;;1.80;99.90;;;2.73;100.00;100010.56;5089379;28;20265;-64
2021/12/06 07:32:52;;;;;;;32.20;19.90;;;1.80;99.90;;;2.65;100.00;99999.13;5089375;28;20770;-67
2021/12/06 07:35:22;;;;;;;31.17;18.93;;;1.80;99.90;;;2.82;100.00;100016.66;5069884;28;20798;-76
2021/12/06 07:37:51;;;;;;;31.80;20.00;;;1.90;99.90;;;2.79;100.00;100017.00;5074668;28;20261;-70
2021/12/06 07:40:20;;;;;;;34.50;21.03;;;1.90;99.90;;;2.74;100.00;100014.84;5089697;28;20302;-68
2021/12/06 07:42:48;;;;;;;33.10;20.47;;;1.90;99.90;;;2.53;100.00;100024.41;5075200;28;20288;-67
2021/12/06 07:45:18;;;;;;;34.50;19.50;;;1.80;99.90;;;2.68;100.00;100028.84;5069627;28;20700;-67
2021/12/06 07:47:48;;;;;;;32.70;20.30;;;1.80;99.90;;;2.60;100.00;100022.75;5069323;28;20710;-68
2021/12/06 07:50:22;;;;;;;32.00;19.93;;;1.80;99.90;;;2.86;100.00;100017.97;5069424;28;20547;-67
2021/12/06 07:52:54;;;;;;;33.80;19.93;;;1.80;99.90;;;2.58;100.00;100019.41;5069661;28;20234;-68
2021/12/06 07:55:26;;;;;;;35.77;20.87;;;1.80;99.90;;;2.68;100.00;100023.53;5069428;28;20671;-68
2021/12/06 07:57:56;;;;;;;32.77;20.30;;;1.80;99.90;;;2.80;100.00;100023.97;5069713;28;20655;-68
2021/12/06 08:00:30;;;;;;;34.63;20.60;;;1.90;99.90;;;2.85;100.00;100027.78;5069444;28;20196;-66
2021/12/06 08:02:59;;;;;;;33.57;20.70;;;1.90;99.90;;;2.95;100.00;100032.88;5078907;28;20277;-65
2021/12/06 08:05:30;;;;;;;35.00;20.17;;;2.00;99.90;;;2.98;100.00;100032.53;5089048;28;20210;-67
2021/12/06 08:07:59;;;;;;;35.47;19.93;;;2.00;99.90;;;2.87;100.00;100031.09;5089335;28;20688;-68
2021/12/06 08:10:27;;;;;;;31.73;19.67;;;2.00;99.90;;;2.88;100.00;100034.56;5089313;28;20282;-68
2021/12/06 08:12:56;;;;;;;31.67;20.70;;;2.00;99.90;;;2.91;100.00;100036.91;5087192;28;20242;-68
2021/12/06 08:15:24;;;;;;;33.80;21.53;;;2.00;99.90;;;2.72;100.00;100039.97;5067928;28;20239;-71
2021/12/06 08:17:52;;;;;;;31.87;20.47;;;2.00;99.90;;;2.86;100.00;100037.41;5069042;28;20316;-70
2021/12/06 08:20:20;;;;;;;32.47;20.20;;;2.00;99.90;;;3.15;100.00;100036.75;5069303;28;20197;-67
2021/12/06 08:22:50;;;;;;;30.57;18.63;;;2.10;99.90;;;2.90;100.00;100037.88;5069034;28;20196;-70
2021/12/06 08:25:19;;;;;;;30.73;20.50;;;2.10;99.90;;;3.21;100.00;100046.72;5069001;28;20286;-68
2021/12/06 08:27:48;;;;;;;32.10;19.60;;;2.10;99.90;;;3.17;100.00;100045.41;5069054;28;20283;-70
2021/12/06 08:30:21;;;;;;;32.87;20.83;;;2.20;99.90;;;3.12;100.00;100043.28;5068841;28;20232;-70
2021/12/06 08:32:52;;;;;;;30.77;20.00;;;2.20;99.90;;;3.14;100.00;100049.25;5069129;28;20212;-67
2021/12/06 08:35:35;;;;;;;29.40;19.67;;;2.20;99.90;;;3.39;100.00;100044.59;5068971;28;20219;-65
2021/12/06 08:38:08;;;;;;;31.27;19.77;;;2.30;99.90;;;3.37;100.00;100059.91;5074341;28;20297;-66
2021/12/06 08:40:38;;;;;;;30.67;19.33;;;2.30;99.90;;;3.23;100.00;100063.34;5088241;28;20698;-66
2021/12/06 08:43:07;;;;;;;36.10;19.90;;;2.30;99.90;;;3.53;100.00;100058.00;5088179;28;20201;-66
2021/12/06 08:45:36;;;;;;;32.07;19.90;;;2.40;99.90;;;3.39;100.00;100064.06;5088375;28;20202;-66
2021/12/06 08:48:05;;;;;;;29.83;19.50;;;2.40;99.90;;;3.18;100.00;100065.69;5088801;28;20192;-72
2021/12/06 08:50:33;;;;;;;31.87;19.57;;;2.30;99.90;;;3.21;100.00;100057.38;5088747;28;20250;-67
2021/12/06 08:53:01;;;;;;;31.20;19.77;;;2.20;99.90;;;3.19;100.00;100067.34;5088784;28;20200;-72
2021/12/06 08:55:31;;;;;;;30.60;19.90;;;2.20;99.90;;;3.29;100.00;100075.94;5088187;28;20224;-71
2021/12/06 08:58:00;;;;;;;30.40;19.47;;;2.20;99.90;;;3.10;100.00;100076.38;5088479;28;20254;-71
2021/12/06 09:00:33;;;;;;;30.10;19.30;;;2.20;99.90;;;3.15;100.00;100071.34;5088175;28;20277;-71
2021/12/06 09:03:01;;;;;;;31.27;20.07;;;2.10;99.90;;;3.19;100.00;100065.53;5088431;28;20201;-69
2021/12/06 09:05:34;;;;;;;30.30;19.07;;;2.20;99.90;;;3.14;100.00;100081.19;5089520;28;20191;-68
2021/12/06 09:08:04;;;;;;;29.67;19.93;;;2.20;99.90;;;3.20;100.00;100083.13;5092097;28;20282;-68
2021/12/06 09:10:34;;;;;;;30.13;19.17;;;2.20;99.90;;;3.30;100.00;100080.25;5092660;28;20204;-69
2021/12/06 09:13:04;;;;;;;29.93;19.63;;;2.20;99.90;;;3.56;100.00;100080.75;5092428;28;20192;-68
2021/12/06 09:15:33;;;;;;;28.90;18.50;;;2.30;99.90;;;3.66;100.00;100090.19;5091881;28;20234;-68
2021/12/06 09:18:02;;;;;;;27.93;18.70;;;2.30;99.90;;;3.66;100.00;100087.53;5091584;28;20266;-69
2021/12/06 09:20:34;;;;;;;31.00;19.13;;;2.40;99.90;;;3.45;100.00;100092.63;5091941;28;20584;-68
2021/12/06 09:23:06;;;;;;;29.87;18.93;;;2.50;99.90;;;3.30;100.00;100099.72;5091865;28;20720;-64
2021/12/06 09:25:37;;;;;;;30.53;20.00;;;2.40;99.90;;;3.08;100.00;100105.00;5091971;28;20188;-63
2021/12/06 09:28:05;;;;;;;28.37;18.13;;;2.20;99.90;;;2.86;100.00;100092.44;5091846;28;20256;-63
2021/12/06 09:30:38;;;;;;;28.03;18.53;;;2.10;99.90;;;3.07;100.00;100100.66;5091780;28;20302;-63
2021/12/06 09:33:10;;;;;;;31.67;19.60;;;2.10;99.90;;;3.26;100.00;100098.44;5091896;28;20185;-63
2021/12/06 09:35:44;;;;;;;30.30;20.63;;;2.20;99.90;;;3.14;100.00;100096.31;5091128;28;20201;-63
2021/12/06 09:38:17;;;;;;;30.73;19.07;;;2.20;99.90;;;3.01;100.00;100090.72;5090936;28;20208;-63
2021/12/06 09:40:52;;;;;;;28.63;18.13;;;2.00;99.90;;;3.09;100.00;100103.97;5090749;28;20760;-66
2021/12/06 09:43:22;;;;;;;30.53;19.77;;;2.10;99.90;;;3.27;100.00;100104.56;5091834;28;20210;-66
2021/12/06 09:45:51;;;;;;;27.87;18.40;;;2.10;99.90;;;3.14;100.00;100106.97;5091609;28;20235;-67
2021/12/06 09:48:20;;;;;;;27.97;18.53;;;2.10;99.90;;;3.41;100.00;100099.34;5091149;28;20631;-65
2021/12/06 09:50:54;;;;;;;27.07;18.23;;;2.20;99.90;;;3.13;100.00;100103.47;5091109;28;20287;-59
2021/12/06 09:53:27;;;;;;;26.50;17.53;;;2.20;99.90;;;3.17;100.00;100103.94;5091290;28;20200;-65
2021/12/06 09:56:04;;;;;;;30.57;20.33;;;2.20;99.90;;;3.52;100.00;100098.09;5091283;28;20184;-62
2021/12/06 09:58:33;;;;;;;28.50;18.63;;;2.30;99.90;;;3.36;100.00;100109.69;5090666;28;20805;-59
2021/12/06 10:01:08;;;;;;;27.00;17.57;;;2.30;99.90;;;3.43;100.00;100097.31;5091201;28;20223;-59
2021/12/06 10:03:37;;;;;;;28.87;18.73;;;2.30;99.90;;;3.26;100.00;100105.56;5091316;28;20229;-59
2021/12/06 10:06:07;;;;;;;26.83;17.20;;;2.20;99.90;;;3.45;100.00;100103.28;5090832;28;20212;-59
2021/12/06 10:08:42;;;;;;;27.87;18.43;;;2.30;99.90;;;3.28;100.00;100104.38;5090921;28;20287;-60
2021/12/06 10:11:14;;;;;;;30.40;19.37;;;2.30;99.90;;;3.18;100.00;100110.94;5090880;28;20234;-60
2021/12/06 10:13:43;;;;;;;28.43;17.90;;;2.20;99.90;;;3.01;100.00;100104.03;5090713;28;20284;-59
2021/12/06 10:16:13;;;;;;;30.27;19.40;;;2.10;99.90;;;2.84;100.00;100105.09;5090698;28;20296;-61
2021/12/06 10:18:42;;;;;;;28.60;19.53;;;2.00;99.90;;;2.90;100.00;100102.56;5090900;28;20587;-62
2021/12/06 10:21:11;;;;;;;30.20;20.03;;;1.90;99.90;;;3.00;100.00;100102.34;5090540;28;20204;-62
2021/12/06 10:23:41;;;;;;;31.83;19.83;;;2.00;99.90;;;3.06;100.00;100114.97;5090362;28;20284;-63
2021/12/06 10:26:14;;;;;;;29.10;19.37;;;2.00;99.90;;;3.08;100.00;100105.00;5090878;28;20181;-61
2021/12/06 10:28:44;;;;;;;30.23;18.93;;;2.10;99.90;;;3.05;100.00;100092.84;5090983;28;20278;-61
2021/12/06 10:31:15;;;;;;;32.67;19.83;;;2.10;99.90;;;3.12;100.00;100096.50;5089617;28;20292;-60
2021/12/06 10:33:49;;;;;;;29.83;19.60;;;2.10;99.90;;;3.52;100.00;100087.44;5090788;28;20223;-65